createdAt,value
2022-10-01T00:07:26.136Z,6.70
2022-10-01T00:17:29.061Z,6.77
2022-10-01T00:27:33.571Z,6.50
2022-10-01T00:37:37.832Z,6.77
2022-10-01T00:47:44.428Z,5.37
2022-10-01T00:57:47.736Z,6.00
2022-10-01T01:07:54.431Z,6.68
2022-10-01T01:18:05.671Z,6.47
2022-10-01T01:28:21.150Z,6.03
2022-10-01T01:38:28.063Z,5.30
2022-10-01T01:48:36.480Z,4.93
2022-10-01T01:58:40.414Z,4.75
2022-10-01T02:08:50.936Z,5.05
2022-10-01T02:19:01.609Z,4.00
2022-10-01T02:29:09.639Z,3.65
2022-10-01T02:39:16.944Z,2.95
2022-10-01T02:49:21.562Z,3.03
2022-10-01T02:59:24.563Z,2.30
2022-10-01T03:09:28.845Z,2.40
2022-10-01T03:19:31.821Z,2.70
2022-10-01T03:29:36.245Z,1.35
2022-10-01T03:39:39.349Z,1.63
2022-10-01T03:49:43.622Z,1.13
2022-10-01T03:59:46.573Z,1.13
2022-10-01T04:09:51.129Z,0.93
2022-10-01T04:19:54.103Z,0.70
2022-10-01T04:29:58.431Z,0.70
2022-10-01T04:40:01.610Z,1.03
2022-10-01T04:50:06.691Z,1.40
2022-10-01T05:10:18.944Z,1.80
2022-10-01T05:20:23.902Z,1.90
2022-10-01T05:30:28.468Z,2.08
2022-10-01T05:40:31.685Z,3.33
2022-10-01T05:50:40.279Z,3.40
2022-10-01T06:00:44.027Z,4.38
2022-10-01T06:10:48.767Z,5.53
2022-10-01T06:20:51.792Z,5.10
2022-10-01T06:30:56.103Z,7.25
2022-10-01T06:41:00.972Z,7.10
2022-10-01T06:51:05.945Z,7.32
2022-10-01T07:11:13.975Z,8.15
2022-10-01T07:21:17.121Z,7.82
2022-10-01T07:31:23.535Z,7.53
2022-10-01T07:41:26.470Z,8.18
2022-10-01T07:51:31.150Z,9.13
2022-10-01T08:11:38.963Z,10.20
2022-10-01T08:21:42.249Z,10.37
2022-10-01T08:31:46.700Z,7.22
2022-10-01T08:41:56.409Z,5.13
2022-10-01T08:52:05.052Z,4.18
2022-10-01T09:02:26.574Z,3.95
2022-10-01T09:12:42.767Z,4.78
2022-10-01T09:22:55.221Z,5.25
2022-10-01T09:33:04.949Z,4.80
2022-10-01T09:43:09.202Z,3.70
2022-10-01T09:53:19.311Z,4.17
2022-10-01T10:03:27.388Z,4.13
2022-10-01T10:13:35.235Z,2.50
2022-10-01T10:23:48.661Z,3.10
2022-10-01T10:33:57.493Z,3.22
2022-10-01T10:44:04.490Z,3.53
2022-10-01T10:54:20.100Z,2.30
2022-10-01T11:04:30.621Z,3.95
2022-10-01T11:14:48.999Z,2.92
2022-10-01T11:25:17.398Z,3.05
2022-10-01T11:35:37.393Z,3.22
2022-10-01T11:45:47.120Z,3.42
2022-10-01T11:56:15.028Z,3.25
2022-10-01T12:06:24.476Z,4.20
2022-10-01T12:16:44.796Z,3.03
2022-10-01T12:27:03.570Z,3.45
2022-10-01T12:37:21.848Z,2.78
2022-10-01T12:47:38.550Z,3.13
2022-10-01T12:57:57.029Z,2.80
2022-10-01T13:08:34.302Z,2.28
2022-10-01T13:18:52.265Z,2.47
2022-10-01T13:29:20.699Z,2.30
2022-10-01T13:39:28.012Z,2.67
2022-10-01T13:49:34.743Z,3.40
2022-10-01T13:59:39.828Z,2.22
2022-10-01T14:09:46.860Z,3.20
2022-10-01T14:19:52.068Z,2.28
2022-10-01T14:30:05.246Z,3.00
2022-10-01T14:40:18.778Z,3.10
2022-10-01T14:50:22.446Z,3.93
2022-10-01T15:00:29.704Z,3.70
2022-10-01T15:10:32.823Z,3.40
2022-10-01T15:20:37.730Z,2.58
2022-10-01T15:30:41.378Z,2.72
2022-10-01T15:40:49.027Z,3.97
2022-10-01T15:51:01.425Z,3.53
2022-10-01T16:01:10.243Z,3.20
2022-10-01T16:11:20.565Z,3.53
2022-10-01T16:21:25.177Z,3.75
2022-10-01T16:41:34.486Z,3.50
2022-10-01T16:51:42.452Z,3.50
2022-10-01T17:01:51.197Z,3.53
2022-10-01T17:11:58.307Z,4.32
2022-10-01T17:22:03.289Z,3.80
2022-10-01T17:32:06.458Z,3.78
2022-10-01T17:42:11.011Z,3.83
2022-10-01T17:52:14.107Z,2.88
2022-10-01T18:02:40.341Z,3.90
2022-10-01T18:12:42.103Z,4.22
2022-10-01T18:22:46.471Z,3.25
2022-10-01T18:32:57.004Z,4.17
2022-10-01T18:43:09.816Z,3.35
2022-10-01T18:53:26.792Z,3.38
2022-10-01T19:04:00.252Z,4.30
2022-10-01T19:14:19.763Z,4.63
2022-10-01T19:24:53.326Z,4.45
2022-10-01T19:35:05.385Z,4.20
2022-10-01T19:45:24.196Z,4.35
2022-10-01T19:55:35.060Z,4.93
2022-10-01T20:05:48.208Z,5.28
2022-10-01T20:16:00.911Z,4.53
2022-10-01T20:26:14.987Z,4.78
2022-10-01T20:36:24.925Z,4.63
2022-10-01T20:46:34.981Z,5.18
2022-10-01T20:56:42.928Z,4.60
2022-10-01T21:06:49.962Z,5.68
2022-10-01T21:17:17.501Z,5.53
2022-10-01T21:27:47.969Z,6.70
2022-10-01T21:38:01.231Z,5.95
2022-10-01T21:48:21.176Z,5.35
2022-10-01T21:58:38.678Z,5.53
2022-10-01T22:09:01.954Z,5.53
2022-10-01T22:19:10.974Z,5.15
2022-10-01T22:29:19.404Z,5.68
2022-10-01T22:39:24.714Z,7.25
2022-10-01T22:49:39.916Z,7.35
2022-10-01T23:10:01.927Z,5.47
2022-10-01T23:20:20.531Z,7.80
2022-10-01T23:30:24.793Z,7.13
2022-10-01T23:40:33.777Z,6.53
2022-10-01T23:50:42.778Z,6.22
